Time;durP1;ratioP1;P1;durP2;ratioP2;P2;SDS_P1;SDS_P2;PMS_P1;PMS_P2;Temp;Humidity;BMP_temperature;BMP_pressure;BME280_temperature;BME280_humidity;BME280_pressure;Samples;Min_cycle;Max_cycle;Signal;HPM_P1;HPM_P2
2021/11/10 00:00:47;;;;;;;8.40;7.77;;;7.10;74.20;;;;;;4968698;28;20043;-78
2021/11/10 00:03:13;;;;;;;6.33;5.87;;;7.00;74.10;;;;;;4971168;28;20392;-78
2021/11/10 00:05:39;;;;;;;7.13;6.45;;;7.00;74.20;;;;;;4985006;28;20039;-78
2021/11/10 00:08:05;;;;;;;7.50;6.32;;;7.00;74.20;;;;;;4954085;28;20055;-78
2021/11/10 00:10:32;;;;;;;11.37;9.13;;;7.00;74.20;;;;;;4962421;28;20038;-78
2021/11/10 00:15:47;;;;;;;6.77;6.23;;;6.90;74.10;;;;;;4962187;28;20040;-78
2021/11/10 00:18:14;;;;;;;6.32;5.95;;;6.90;74.10;;;;;;4971572;28;20046;-78
2021/11/10 00:20:41;;;;;;;7.63;7.03;;;6.80;74.10;;;;;;4970571;28;20389;-78
2021/11/10 00:23:07;;;;;;;6.20;5.67;;;6.80;74.10;;;;;;4970843;28;20038;-78
2021/11/10 00:25:33;;;;;;;7.20;6.47;;;6.80;74.10;;;;;;4969399;28;20412;-78
2021/11/10 00:27:59;;;;;;;9.27;7.43;;;6.80;74.10;;;;;;4970963;28;20034;-78
2021/11/10 00:30:26;;;;;;;5.57;5.27;;;6.70;74.10;;;;;;4970278;28;20027;-78
2021/11/10 00:32:52;;;;;;;9.80;6.73;;;6.70;74.10;;;;;;4970706;28;20659;-78
2021/11/10 00:35:20;;;;;;;7.20;6.60;;;6.70;74.10;;;;;;4970979;28;20023;-78
2021/11/10 00:37:46;;;;;;;7.63;7.00;;;6.70;74.10;;;;;;4969407;28;20026;-78
2021/11/10 00:40:12;;;;;;;7.13;6.53;;;6.70;74.10;;;;;;4972251;28;20023;-78
2021/11/10 00:42:39;;;;;;;8.05;7.32;;;6.70;74.20;;;;;;4974517;28;20030;-78
2021/11/10 00:45:05;;;;;;;5.97;5.57;;;6.70;74.20;;;;;;4973471;28;20484;-78
2021/11/10 00:47:31;;;;;;;7.17;6.57;;;6.70;74.10;;;;;;4971916;28;20046;-78
2021/11/10 00:49:58;;;;;;;12.27;6.90;;;6.70;74.10;;;;;;4974920;28;20491;-78
2021/11/10 00:52:24;;;;;;;10.43;7.20;;;6.70;74.10;;;;;;4974837;28;20517;-78
2021/11/10 00:54:51;;;;;;;6.83;6.33;;;6.70;74.20;;;;;;4959452;28;20030;-78
2021/11/10 00:57:17;;;;;;;7.23;6.60;;;6.70;74.20;;;;;;4955717;28;20051;-78
2021/11/10 00:59:43;;;;;;;6.60;6.00;;;6.60;74.10;;;;;;4974400;28;20042;-78
2021/11/10 01:02:09;;;;;;;6.60;6.10;;;6.70;74.20;;;;;;4973241;28;20027;-78
2021/11/10 01:04:35;;;;;;;6.47;5.90;;;6.60;74.20;;;;;;4973735;28;20042;-78
2021/11/10 01:07:02;;;;;;;6.65;6.10;;;6.60;74.30;;;;;;4974443;28;20030;-78
2021/11/10 01:09:28;;;;;;;12.30;9.33;;;6.60;74.20;;;;;;4973262;28;20033;-78
2021/11/10 01:11:54;;;;;;;8.53;7.77;;;6.50;74.30;;;;;;4975192;28;20042;-78
2021/11/10 01:14:20;;;;;;;7.83;6.00;;;6.50;74.30;;;;;;4973578;28;20034;-78
2021/11/10 01:16:47;;;;;;;6.37;5.90;;;6.50;74.30;;;;;;4973299;28;20537;-78
2021/11/10 01:19:13;;;;;;;5.73;5.37;;;6.40;74.30;;;;;;4974746;28;20031;-78
2021/11/10 01:21:39;;;;;;;6.80;6.27;;;6.40;74.30;;;;;;4959357;28;20034;-78
2021/11/10 01:24:05;;;;;;;6.27;5.73;;;6.40;74.30;;;;;;4979110;28;20031;-78
2021/11/10 01:26:31;;;;;;;6.40;5.83;;;6.40;74.40;;;;;;4973474;28;20480;-78
2021/11/10 01:28:58;;;;;;;9.03;6.83;;;6.40;74.40;;;;;;4957606;28;20046;-78
2021/11/10 01:31:24;;;;;;;9.77;7.17;;;6.30;74.30;;;;;;4966578;28;20046;-78
2021/11/10 01:33:50;;;;;;;7.70;6.67;;;6.30;74.30;;;;;;4972635;28;20392;-78
2021/11/10 01:36:17;;;;;;;11.90;6.27;;;6.30;74.30;;;;;;4973901;28;20034;-78
2021/11/10 01:38:43;;;;;;;5.03;4.77;;;6.30;74.40;;;;;;4988993;28;20031;-78
2021/11/10 01:41:09;;;;;;;6.00;5.60;;;6.30;74.40;;;;;;4973994;28;20034;-78
2021/11/10 01:43:36;;;;;;;5.63;5.27;;;6.20;74.40;;;;;;4973469;28;20031;-78
2021/11/10 01:46:03;;;;;;;7.77;7.07;;;6.20;74.40;;;;;;4972826;28;20035;-78
2021/11/10 01:48:29;;;;;;;5.53;5.13;;;6.20;74.40;;;;;;4974223;28;20034;-78
2021/11/10 01:50:55;;;;;;;13.87;6.63;;;6.20;74.50;;;;;;4962097;28;20054;-78
2021/11/10 01:53:21;;;;;;;7.43;6.60;;;6.10;74.50;;;;;;4973436;28;20042;-78
2021/11/10 01:55:47;;;;;;;7.20;6.50;;;6.10;74.50;;;;;;4958594;28;20416;-78
2021/11/10 01:58:13;;;;;;;5.77;5.43;;;6.20;74.50;;;;;;4973991;28;20049;-78
2021/11/10 02:00:41;;;;;;;5.73;5.43;;;6.20;74.40;;;;;;4972036;28;20039;-78
2021/11/10 02:03:08;;;;;;;7.23;6.73;;;6.10;74.40;;;;;;4953507;28;20030;-78
2021/11/10 02:05:34;;;;;;;6.37;5.70;;;6.10;74.40;;;;;;4973162;28;20045;-78
2021/11/10 02:08:00;;;;;;;7.37;6.73;;;6.10;74.40;;;;;;4973246;28;20027;-78
2021/11/10 02:10:26;;;;;;;17.03;7.40;;;6.10;74.40;;;;;;4973046;28;20034;-78
2021/11/10 02:12:54;;;;;;;9.43;8.10;;;6.10;74.50;;;;;;4972903;28;20034;-78
2021/11/10 02:15:20;;;;;;;5.10;4.70;;;6.10;74.50;;;;;;4972587;28;20420;-78
2021/11/10 02:17:48;;;;;;;5.80;5.43;;;6.10;74.50;;;;;;4958041;28;20027;-78
2021/11/10 02:20:14;;;;;;;5.20;4.90;;;6.10;74.40;;;;;;4972645;28;20031;-77
2021/11/10 02:22:41;;;;;;;6.13;5.77;;;6.00;74.40;;;;;;4973337;28;20038;-78
2021/11/10 02:25:08;;;;;;;7.00;6.40;;;6.00;74.50;;;;;;4953633;28;20043;-78
2021/11/10 02:27:35;;;;;;;5.70;5.33;;;5.90;75.30;;;;;;4973107;28;20476;-78
2021/11/10 02:30:06;;;;;;;6.57;6.10;;;5.90;74.50;;;;;;4973404;28;20490;-78
2021/11/10 02:32:32;;;;;;;8.20;7.45;;;5.80;74.50;;;;;;4976918;28;20430;-78
2021/11/10 02:34:58;;;;;;;5.87;5.47;;;5.80;74.60;;;;;;4953426;28;20480;-78
2021/11/10 02:37:25;;;;;;;5.43;5.13;;;5.80;74.70;;;;;;4963941;28;20038;-78
2021/11/10 02:39:51;;;;;;;5.23;4.70;;;5.70;74.70;;;;;;4972692;28;20026;-78
2021/11/10 02:42:18;;;;;;;6.50;6.03;;;5.70;74.70;;;;;;4973400;28;20122;-78
2021/11/10 02:44:51;;;;;;;6.13;5.70;;;5.70;74.70;;;;;;4955377;28;20031;-78
2021/11/10 02:47:18;;;;;;;6.23;5.83;;;5.70;74.70;;;;;;4957608;28;20499;-78
2021/11/10 02:49:44;;;;;;;6.93;6.43;;;5.70;74.70;;;;;;4971344;28;20023;-78
2021/11/10 02:52:12;;;;;;;5.60;5.20;;;5.70;74.60;;;;;;4972303;28;20050;-78
2021/11/10 02:54:50;;;;;;;4.50;4.30;;;5.70;74.60;;;;;;4972685;28;20375;-78
2021/11/10 02:57:16;;;;;;;6.83;6.37;;;5.60;74.60;;;;;;4972709;28;20030;-78
2021/11/10 02:59:42;;;;;;;5.73;5.43;;;5.60;74.60;;;;;;4970562;28;20050;-78
2021/11/10 03:02:08;;;;;;;6.03;5.63;;;5.60;74.60;;;;;;4969907;28;20054;-78
2021/11/10 03:04:37;;;;;;;5.83;5.37;;;5.50;74.60;;;;;;4970284;28;20030;-78
2021/11/10 03:07:04;;;;;;;5.00;4.70;;;5.50;74.70;;;;;;4969451;28;20031;-78
2021/11/10 03:09:31;;;;;;;6.17;5.77;;;5.50;74.70;;;;;;4978147;28;20034;-78
2021/11/10 03:11:59;;;;;;;5.83;5.30;;;5.40;74.70;;;;;;4984307;28;20495;-78
2021/11/10 03:14:26;;;;;;;6.00;5.67;;;5.40;74.80;;;;;;4971183;28;20019;-78
2021/11/10 03:16:53;;;;;;;5.00;4.70;;;5.40;74.80;;;;;;4968974;28;20030;-77
2021/11/10 03:19:19;;;;;;;6.40;5.80;;;5.40;74.90;;;;;;4962119;28;20046;-77
2021/11/10 03:21:46;;;;;;;5.63;5.27;;;5.30;74.80;;;;;;4967794;28;20043;-78
2021/11/10 03:24:13;;;;;;;5.73;5.33;;;5.30;74.80;;;;;;4975359;28;20018;-78
2021/11/10 03:26:39;;;;;;;6.73;6.17;;;5.30;74.80;;;;;;4954434;28;20042;-77
2021/11/10 03:29:05;;;;;;;5.37;5.07;;;5.30;74.70;;;;;;4953127;28;20054;-77
2021/11/10 03:31:32;;;;;;;20.33;6.20;;;5.30;74.70;;;;;;4966421;28;20057;-77
2021/11/10 03:33:59;;;;;;;6.87;6.27;;;5.30;74.80;;;;;;4966759;28;20043;-77
2021/11/10 03:36:25;;;;;;;6.63;6.13;;;5.30;74.70;;;;;;4970886;28;20030;-77
2021/11/10 03:38:51;;;;;;;5.07;4.77;;;5.30;74.70;;;;;;4983886;28;20037;-77
2021/11/10 03:41:17;;;;;;;6.70;6.20;;;5.30;74.70;;;;;;4975430;28;20026;-77
2021/11/10 03:43:43;;;;;;;7.43;6.83;;;5.20;74.50;;;;;;4971748;28;20041;-77
2021/11/10 03:46:09;;;;;;;6.53;5.80;;;5.30;74.60;;;;;;4971628;28;20046;-77
2021/11/10 03:48:36;;;;;;;5.70;5.30;;;5.20;74.60;;;;;;4975581;28;20027;-77
2021/11/10 03:51:02;;;;;;;6.07;5.67;;;5.20;74.50;;;;;;4972499;28;20046;-77
2021/11/10 03:53:28;;;;;;;5.73;5.40;;;5.20;74.50;;;;;;4970949;28;20483;-77
2021/11/10 03:55:54;;;;;;;5.30;5.00;;;5.20;74.60;;;;;;4955738;28;20035;-77
2021/11/10 03:58:20;;;;;;;5.77;5.27;;;5.20;74.70;;;;;;4972102;28;20503;-77
2021/11/10 04:00:46;;;;;;;5.43;5.10;;;5.20;74.60;;;;;;4968689;28;20038;-77
2021/11/10 04:03:12;;;;;;;7.37;6.80;;;5.20;74.50;;;;;;4972073;28;20037;-77
2021/11/10 04:05:42;;;;;;;6.33;5.63;;;5.10;74.50;;;;;;4969854;28;20392;-77
2021/11/10 04:08:11;;;;;;;6.13;5.73;;;5.10;74.60;;;;;;4964215;28;20489;-77
2021/11/10 04:10:37;;;;;;;5.60;5.30;;;5.10;74.60;;;;;;4971596;28;20030;-77
2021/11/10 04:13:05;;;;;;;6.80;6.27;;;5.10;74.60;;;;;;4954746;28;20057;-77
2021/11/10 04:15:31;;;;;;;5.57;5.13;;;5.10;74.60;;;;;;4970253;28;20521;-77
2021/11/10 04:17:57;;;;;;;6.87;6.33;;;5.10;74.70;;;;;;4972107;28;20038;-77
2021/11/10 04:20:24;;;;;;;4.87;4.67;;;5.00;74.60;;;;;;4970923;28;20480;-78
2021/11/10 04:22:50;;;;;;;5.17;4.87;;;5.00;74.70;;;;;;4970023;28;20034;-77
2021/11/10 04:25:16;;;;;;;5.30;4.90;;;5.00;74.70;;;;;;4971850;28;20046;-79
2021/11/10 04:27:42;;;;;;;5.00;4.70;;;5.00;74.70;;;;;;4971294;28;20503;-78
2021/11/10 04:30:11;;;;;;;5.50;5.20;;;5.10;74.60;;;;;;4970188;28;20042;-77
2021/11/10 04:32:38;;;;;;;5.63;5.30;;;5.00;74.50;;;;;;4971318;28;20038;-78
2021/11/10 04:35:06;;;;;;;5.57;5.27;;;5.00;74.70;;;;;;4970668;28;20031;-78
2021/11/10 04:37:32;;;;;;;7.40;5.50;;;5.00;74.70;;;;;;4969868;28;20399;-78
2021/11/10 04:39:58;;;;;;;5.80;5.40;;;4.90;74.70;;;;;;4972125;28;20598;-78
2021/11/10 04:42:24;;;;;;;6.80;6.30;;;5.00;74.80;;;;;;4974558;28;20041;-78
2021/11/10 04:44:55;;;;;;;6.37;5.40;;;4.90;74.70;;;;;;4969209;28;20031;-78
2021/11/10 04:47:21;;;;;;;4.80;4.50;;;4.90;74.70;;;;;;4954378;28;20051;-78
2021/11/10 04:49:47;;;;;;;8.10;6.60;;;4.90;74.80;;;;;;4970368;28;20042;-78
2021/11/10 04:52:16;;;;;;;6.03;5.47;;;4.90;74.80;;;;;;4971389;28;20035;-78
2021/11/10 04:54:42;;;;;;;6.43;5.93;;;4.90;74.80;;;;;;4956369;28;20030;-78
2021/11/10 04:57:09;;;;;;;6.07;5.67;;;4.90;74.70;;;;;;4976014;28;20027;-78
2021/11/10 04:59:35;;;;;;;5.97;5.50;;;4.80;74.70;;;;;;4970333;28;20057;-78
2021/11/10 05:04:34;;;;;;;6.53;6.13;;;4.80;74.70;;;;;;4974057;28;20427;-78
2021/11/10 05:07:00;;;;;;;5.87;5.37;;;4.80;74.70;;;;;;4970287;28;20023;-78
2021/11/10 05:09:27;;;;;;;7.03;6.53;;;4.80;74.80;;;;;;4970135;28;20061;-77
2021/11/10 05:11:53;;;;;;;7.17;6.47;;;4.80;74.80;;;;;;4971992;28;20043;-78
2021/11/10 05:14:20;;;;;;;4.40;4.20;;;4.70;74.80;;;;;;4970314;28;20038;-78
2021/11/10 05:16:46;;;;;;;5.53;5.23;;;4.70;74.90;;;;;;4965257;28;20396;-78
2021/11/10 05:19:12;;;;;;;6.30;5.83;;;4.70;74.90;;;;;;4948389;28;20481;-78
2021/11/10 05:21:39;;;;;;;6.67;5.30;;;4.70;74.90;;;;;;4956834;28;20031;-78
2021/11/10 05:24:05;;;;;;;5.73;5.43;;;4.70;74.90;;;;;;4971168;28;20060;-78
2021/11/10 05:26:31;;;;;;;6.97;6.47;;;4.70;74.90;;;;;;4972246;28;20031;-78
2021/11/10 05:28:58;;;;;;;4.53;4.33;;;4.70;74.90;;;;;;4971223;28;20037;-78
2021/11/10 05:31:24;;;;;;;4.73;4.53;;;4.70;74.90;;;;;;4973215;28;20042;-78
2021/11/10 05:33:50;;;;;;;5.20;4.90;;;4.70;74.90;;;;;;4973455;28;20046;-78
2021/11/10 05:36:16;;;;;;;5.30;5.00;;;4.60;74.80;;;;;;4974626;28;20038;-78
2021/11/10 05:38:42;;;;;;;6.30;5.80;;;4.60;74.80;;;;;;4975188;28;20034;-78
2021/11/10 05:41:09;;;;;;;5.70;5.30;;;4.70;74.90;;;;;;4974220;28;20030;-78
2021/11/10 05:43:35;;;;;;;5.27;4.10;;;4.60;74.80;;;;;;4973588;28;20027;-78
2021/11/10 05:46:02;;;;;;;5.30;4.93;;;4.60;74.80;;;;;;4972476;28;20045;-78
2021/11/10 05:48:28;;;;;;;4.90;4.60;;;4.60;74.70;;;;;;4972152;28;20507;-78
2021/11/10 05:50:54;;;;;;;4.87;4.67;;;4.60;74.80;;;;;;4975220;28;20030;-78
2021/11/10 05:53:21;;;;;;;5.57;5.07;;;4.50;74.80;;;;;;4973513;28;20400;-78
2021/11/10 05:55:52;;;;;;;5.10;4.80;;;4.50;74.80;;;;;;4974061;28;20487;-78
2021/11/10 05:58:19;;;;;;;5.63;5.15;;;4.50;74.80;;;;;;4974278;28;20038;-78
2021/11/10 06:00:45;;;;;;;4.67;4.37;;;4.50;74.80;;;;;;4973116;28;20075;-78
2021/11/10 06:03:11;;;;;;;5.13;4.83;;;4.50;74.80;;;;;;4973542;28;20042;-78
2021/11/10 06:05:37;;;;;;;5.50;5.10;;;4.50;74.80;;;;;;4975374;28;20034;-78
2021/11/10 06:08:03;;;;;;;4.93;4.60;;;4.40;74.70;;;;;;4971363;28;20035;-78
2021/11/10 06:10:30;;;;;;;6.10;4.63;;;4.40;74.70;;;;;;4976516;28;20039;-78
2021/11/10 06:12:56;;;;;;;4.00;3.80;;;4.40;74.70;;;;;;4973954;28;20403;-78
2021/11/10 06:15:22;;;;;;;5.03;4.73;;;4.40;74.70;;;;;;4958115;28;20035;-78
2021/11/10 06:17:48;;;;;;;5.23;4.80;;;4.40;74.70;;;;;;4972118;28;20030;-78
2021/11/10 06:20:15;;;;;;;10.37;4.67;;;4.40;74.70;;;;;;4973461;28;20297;-77
2021/11/10 06:22:42;;;;;;;4.13;3.93;;;4.40;74.70;;;;;;4972512;28;20376;-80
2021/11/10 06:25:08;;;;;;;4.10;3.90;;;4.40;74.70;;;;;;4980650;28;20392;-78
2021/11/10 06:27:35;;;;;;;4.17;3.97;;;4.40;74.70;;;;;;4990098;28;20030;-78
2021/11/10 06:30:02;;;;;;;4.27;4.07;;;4.40;74.80;;;;;;4971151;28;20034;-81
2021/11/10 06:32:28;;;;;;;5.27;4.83;;;4.40;74.70;;;;;;4973520;28;20054;-80
2021/11/10 06:34:54;;;;;;;5.30;5.00;;;4.40;74.70;;;;;;4972969;28;20029;-81
2021/11/10 06:37:20;;;;;;;5.07;4.77;;;4.30;74.70;;;;;;4983207;28;20034;-78
2021/11/10 06:39:46;;;;;;;4.47;4.27;;;4.30;74.90;;;;;;4973710;28;20494;-79
2021/11/10 06:42:12;;;;;;;5.17;4.77;;;4.30;74.80;;;;;;4973617;28;20041;-79
2021/11/10 06:44:38;;;;;;;4.77;4.43;;;4.40;74.90;;;;;;4959073;28;20042;-79
2021/11/10 06:47:05;;;;;;;5.33;4.93;;;4.40;74.90;;;;;;4986741;28;20049;-81
2021/11/10 06:49:31;;;;;;;5.47;5.13;;;4.40;74.90;;;;;;4977681;28;20023;-79
2021/11/10 06:51:57;;;;;;;4.40;4.20;;;4.40;74.90;;;;;;4977033;28;20034;-79
2021/11/10 06:54:23;;;;;;;4.47;4.27;;;4.40;74.90;;;;;;4981880;28;20061;-79
2021/11/10 06:56:50;;;;;;;5.77;5.30;;;4.40;74.80;;;;;;4977729;28;20027;-78
2021/11/10 06:59:17;;;;;;;14.83;6.80;;;4.40;74.90;;;;;;4966353;28;20487;-78
2021/11/10 07:01:43;;;;;;;5.57;5.27;;;4.40;74.90;;;;;;4978763;28;20030;-79
2021/11/10 07:04:09;;;;;;;8.47;5.53;;;4.40;74.90;;;;;;4959064;28;20058;-80
2021/11/10 07:06:36;;;;;;;7.27;6.57;;;4.40;75.00;;;;;;4976679;28;20490;-78
2021/11/10 07:09:07;;;;;;;5.10;4.60;;;4.40;74.90;;;;;;4984269;28;20491;-80
2021/11/10 07:11:34;;;;;;;5.38;5.07;;;4.40;75.00;;;;;;4975870;28;20078;-78
2021/11/10 07:14:07;;;;;;;5.73;5.33;;;4.40;75.00;;;;;;4981267;28;20042;-79
2021/11/10 07:16:34;;;;;;;5.97;5.53;;;4.40;74.90;;;;;;4979061;28;20038;-81
2021/11/10 07:19:00;;;;;;;5.03;4.67;;;4.40;74.90;;;;;;4977938;28;20038;-84
2021/11/10 07:21:26;;;;;;;5.33;4.80;;;4.40;75.00;;;;;;4962335;28;20050;-83
2021/11/10 07:23:53;;;;;;;5.37;4.97;;;4.40;75.00;;;;;;4981469;28;20411;-81
2021/11/10 07:26:19;;;;;;;4.97;4.77;;;4.40;75.70;;;;;;4975883;28;20042;-80
2021/11/10 07:28:45;;;;;;;7.50;6.87;;;4.40;74.90;;;;;;4975748;28;20018;-79
2021/11/10 07:31:12;;;;;;;7.03;6.53;;;4.40;74.90;;;;;;4977441;28;20046;-80
2021/11/10 07:33:38;;;;;;;6.47;5.93;;;4.30;74.90;;;;;;4977868;28;20080;-81
2021/11/10 07:36:04;;;;;;;5.23;4.93;;;4.30;75.00;;;;;;4979228;28;20049;-81
2021/11/10 07:38:31;;;;;;;4.83;4.53;;;4.30;75.10;;;;;;4969879;28;20388;-78
2021/11/10 07:40:59;;;;;;;5.20;4.73;;;4.30;75.00;;;;;;4968872;28;20507;-79
2021/11/10 07:43:25;;;;;;;5.90;5.53;;;4.30;75.00;;;;;;4970445;28;20030;-79
2021/11/10 07:45:53;;;;;;;6.07;5.57;;;4.40;75.00;;;;;;4968841;28;20038;-80
2021/11/10 07:48:19;;;;;;;5.97;5.57;;;4.40;74.90;;;;;;4970954;28;20034;-79
2021/11/10 07:50:46;;;;;;;5.40;5.00;;;4.40;74.90;;;;;;4969295;28;20476;-79
2021/11/10 07:53:12;;;;;;;4.40;4.20;;;4.40;74.70;;;;;;4970300;28;20043;-83
2021/11/10 07:55:38;;;;;;;4.73;4.53;;;4.40;74.70;;;;;;4968822;28;20046;-85
2021/11/10 07:58:04;;;;;;;3.83;3.63;;;4.40;74.70;;;;;;4969265;28;20038;-84
2021/11/10 08:00:31;;;;;;;3.90;3.70;;;4.50;74.80;;;;;;4970622;28;20054;-82
2021/11/10 08:02:57;;;;;;;5.57;5.17;;;4.50;74.80;;;;;;4973567;28;20023;-79
2021/11/10 08:05:23;;;;;;;5.63;5.13;;;4.50;74.70;;;;;;4969766;28;20038;-79
2021/11/10 08:07:49;;;;;;;6.17;5.77;;;4.50;74.70;;;;;;4952114;28;20388;-78
2021/11/10 08:10:16;;;;;;;5.20;4.90;;;4.50;74.80;;;;;;4969733;28;20035;-78
2021/11/10 08:12:43;;;;;;;5.60;5.17;;;4.60;74.80;;;;;;4970345;28;20492;-80
2021/11/10 08:15:12;;;;;;;4.40;4.20;;;4.70;74.80;;;;;;4971358;28;20373;-78
2021/11/10 08:17:38;;;;;;;5.40;5.00;;;4.80;74.60;;;;;;4971285;28;20034;-79
2021/11/10 08:20:11;;;;;;;4.10;3.90;;;4.90;74.30;;;;;;4968891;28;20054;-79
2021/11/10 08:22:37;;;;;;;5.27;4.93;;;5.00;74.20;;;;;;4968975;28;20034;-78
2021/11/10 08:25:04;;;;;;;19.33;7.07;;;5.00;74.10;;;;;;4970299;28;20155;-78
2021/11/10 08:27:31;;;;;;;4.80;4.50;;;5.10;74.20;;;;;;4970305;28;20038;-78
2021/11/10 08:29:57;;;;;;;5.37;5.07;;;5.10;74.20;;;;;;4970808;28;20053;-79
2021/11/10 08:32:23;;;;;;;5.47;5.13;;;5.10;74.20;;;;;;4954007;28;20045;-80
2021/11/10 08:34:49;;;;;;;8.23;6.27;;;5.10;74.20;;;;;;4960903;28;20038;-79
2021/11/10 08:37:15;;;;;;;4.00;3.80;;;5.10;74.20;;;;;;4969985;28;20031;-79
2021/11/10 08:39:41;;;;;;;5.97;5.53;;;5.10;74.30;;;;;;4969681;28;20035;-79
2021/11/10 08:42:09;;;;;;;5.70;5.03;;;5.20;74.40;;;;;;4952539;28;20035;-79
2021/11/10 08:44:40;;;;;;;5.27;4.80;;;5.20;74.40;;;;;;4969185;28;20026;-79
2021/11/10 08:47:07;;;;;;;21.25;5.80;;;5.20;74.30;;;;;;4968407;28;20034;-78
2021/11/10 08:49:34;;;;;;;5.30;4.90;;;5.30;74.30;;;;;;4968838;28;20030;-84
2021/11/10 08:52:00;;;;;;;7.57;5.13;;;5.30;74.20;;;;;;4954493;28;20038;-84
2021/11/10 08:54:26;;;;;;;6.53;5.67;;;5.40;74.10;;;;;;4970467;28;20034;-84
2021/11/10 08:56:55;;;;;;;5.00;4.70;;;5.50;74.10;;;;;;4985795;28;20387;-81
2021/11/10 08:59:22;;;;;;;5.33;4.80;;;5.60;74.10;;;;;;4972318;28;20050;-85
2021/11/10 09:01:54;;;;;;;4.07;3.87;;;5.70;74.10;;;;;;4971685;28;20062;-81
2021/11/10 09:04:21;;;;;;;4.17;3.97;;;5.80;73.90;;;;;;4975281;28;20039;-82
2021/11/10 09:06:48;;;;;;;4.67;4.47;;;5.90;73.70;;;;;;4975044;28;20034;-82
2021/11/10 09:09:14;;;;;;;7.40;5.57;;;6.00;73.70;;;;;;4975781;28;20027;-82
2021/11/10 09:11:40;;;;;;;5.03;4.80;;;6.10;73.70;;;;;;4976536;28;20035;-83
2021/11/10 09:14:06;;;;;;;8.37;4.80;;;6.20;73.60;;;;;;4974943;28;20038;-82
2021/11/10 09:16:33;;;;;;;5.27;4.97;;;6.20;73.70;;;;;;4957515;28;20046;-82
2021/11/10 09:18:59;;;;;;;6.97;5.23;;;6.30;73.70;;;;;;4973261;28;20042;-82
2021/11/10 09:21:25;;;;;;;5.43;5.00;;;6.30;73.70;;;;;;4975469;28;20372;-82
2021/11/10 09:23:52;;;;;;;6.47;5.87;;;6.40;73.70;;;;;;4989268;28;20023;-80
2021/11/10 09:26:18;;;;;;;6.57;6.13;;;6.50;73.70;;;;;;4971908;28;20034;-82
2021/11/10 09:28:44;;;;;;;5.13;4.87;;;6.60;73.50;;;;;;4950505;28;20042;-82
2021/11/10 09:31:10;;;;;;;5.27;4.97;;;6.70;73.40;;;;;;4949989;28;20031;-83
2021/11/10 09:33:39;;;;;;;5.87;5.57;;;6.80;73.50;;;;;;4986140;28;20046;-81
2021/11/10 09:36:06;;;;;;;4.60;4.37;;;6.80;73.40;;;;;;4975624;28;20039;-78
2021/11/10 09:38:32;;;;;;;7.23;6.73;;;6.90;73.40;;;;;;4977540;28;20498;-82
2021/11/10 09:41:01;;;;;;;5.30;5.00;;;7.00;73.40;;;;;;4963395;28;20042;-82
2021/11/10 09:43:35;;;;;;;5.00;4.70;;;7.00;73.40;;;;;;4975432;28;20047;-81
2021/11/10 09:46:01;;;;;;;6.78;6.22;;;7.00;73.50;;;;;;4973782;28;20042;-82
2021/11/10 09:48:27;;;;;;;9.17;5.60;;;7.00;73.60;;;;;;4973695;28;20069;-82
2021/11/10 09:50:53;;;;;;;7.87;5.83;;;7.10;73.60;;;;;;4957610;28;20043;-81
2021/11/10 09:53:19;;;;;;;5.93;5.32;;;7.10;73.60;;;;;;4957134;28;20073;-82
2021/11/10 09:55:46;;;;;;;5.50;5.00;;;7.20;73.60;;;;;;4976464;28;20038;-82
2021/11/10 09:58:12;;;;;;;5.07;4.80;;;7.30;73.70;;;;;;4989265;28;20041;-82
2021/11/10 10:00:44;;;;;;;5.65;5.35;;;7.30;73.60;;;;;;4958149;28;20046;-82
2021/11/10 10:03:10;;;;;;;4.33;4.13;;;7.40;73.70;;;;;;4988526;28;20375;-82
2021/11/10 10:05:36;;;;;;;4.83;4.63;;;7.40;73.70;;;;;;4977500;28;20379;-82
2021/11/10 10:08:04;;;;;;;5.65;5.15;;;7.40;73.50;;;;;;4978292;28;20042;-82
2021/11/10 10:10:30;;;;;;;5.53;5.15;;;7.40;73.50;;;;;;4977560;28;20034;-82
2021/11/10 10:12:57;;;;;;;5.05;4.82;;;7.50;73.70;;;;;;4976060;28;20039;-82
2021/11/10 10:15:26;;;;;;;5.10;4.80;;;7.50;73.70;;;;;;4990677;28;20057;-83
2021/11/10 10:17:58;;;;;;;5.97;5.47;;;7.60;73.70;;;;;;4978132;28;20395;-82
2021/11/10 10:20:32;;;;;;;5.23;4.93;;;7.60;73.60;;;;;;4977766;28;20030;-82
2021/11/10 10:23:01;;;;;;;6.67;6.17;;;7.70;73.50;;;;;;4978151;28;20031;-82
2021/11/10 10:25:55;;;;;;;5.45;5.15;;;7.70;73.50;;;;;;4977908;28;20025;-82
2021/11/10 10:28:23;;;;;;;5.03;4.82;;;7.70;73.70;;;;;;4979052;28;20041;-82
2021/11/10 10:30:51;;;;;;;5.20;4.90;;;7.70;73.70;;;;;;4973823;28;20031;-86
2021/11/10 10:33:20;;;;;;;6.68;6.03;;;7.70;73.90;;;;;;4975744;28;20061;-82
2021/11/10 10:36:13;;;;;;;5.70;5.30;;;7.80;73.80;;;;;;4977864;28;20027;-83
2021/11/10 10:38:47;;;;;;;5.03;4.73;;;7.90;73.50;;;;;;4970508;28;20038;-85
2021/11/10 10:41:14;;;;;;;5.55;5.00;;;8.00;73.40;;;;;;4980183;28;20039;-84
2021/11/10 10:43:46;;;;;;;5.40;5.03;;;8.10;73.40;;;;;;4983732;28;20037;-84
2021/11/10 10:46:13;;;;;;;5.30;5.00;;;8.10;73.40;;;;;;4961091;28;20077;-81
2021/11/10 10:48:39;;;;;;;4.78;4.47;;;8.10;73.30;;;;;;4971126;28;20043;-80
2021/11/10 10:51:13;;;;;;;4.80;4.60;;;8.20;73.30;;;;;;4979189;28;20033;-81
2021/11/10 10:53:50;;;;;;;5.72;5.43;;;8.30;73.30;;;;;;4977170;28;20388;-81
2021/11/10 10:56:26;;;;;;;5.25;4.95;;;8.30;73.20;;;;;;4976767;28;20357;-83
2021/11/10 10:59:03;;;;;;;5.10;4.70;;;8.40;73.10;;;;;;4957544;28;20035;-78
2021/11/10 11:01:32;;;;;;;6.82;5.82;;;8.60;73.00;;;;;;4968270;28;20031;-81
2021/11/10 11:04:06;;;;;;;5.65;5.35;;;8.70;72.70;;;;;;4987760;28;20041;-82
2021/11/10 11:06:39;;;;;;;5.30;5.00;;;8.80;72.50;;;;;;4973773;28;20034;-83
2021/11/10 11:09:23;;;;;;;4.30;4.07;;;8.90;72.50;;;;;;4958510;28;20036;-83
2021/11/10 11:12:12;;;;;;;4.50;4.30;;;8.90;72.30;;;;;;4958108;28;20058;-82
2021/11/10 11:14:48;;;;;;;4.55;4.35;;;9.00;72.30;;;;;;4977338;28;20049;-81
2021/11/10 11:17:29;;;;;;;4.95;4.65;;;9.00;72.20;;;;;;4976696;28;20031;-80
2021/11/10 11:19:58;;;;;;;6.20;5.80;;;9.10;72.30;;;;;;4976470;28;20027;-81
2021/11/10 11:22:49;;;;;;;7.43;6.00;;;9.10;72.20;;;;;;4976408;28;20042;-82
2021/11/10 11:25:17;;;;;;;5.25;4.85;;;9.20;72.30;;;;;;4954189;28;20043;-82
2021/11/10 11:28:24;;;;;;;5.80;5.30;;;9.20;72.20;;;;;;4972292;28;20035;-82
2021/11/10 11:30:50;;;;;;;4.75;4.55;;;9.30;72.10;;;;;;4959176;28;20030;-82
2021/11/10 11:33:17;;;;;;;5.70;5.40;;;9.30;72.00;;;;;;4976457;28;20027;-82
2021/11/10 11:35:45;;;;;;;5.10;4.90;;;9.40;72.00;;;;;;4992585;28;20043;-86
2021/11/10 11:38:19;;;;;;;4.88;4.68;;;9.50;71.90;;;;;;4982904;28;20035;-84
2021/11/10 11:40:46;;;;;;;6.68;6.30;;;9.60;71.90;;;;;;4981011;28;20034;-83
2021/11/10 11:43:16;;;;;;;6.28;5.88;;;9.70;71.80;;;;;;4976921;28;20030;-83
2021/11/10 11:45:45;;;;;;;5.88;5.30;;;9.80;71.60;;;;;;4960977;28;20027;-80
2021/11/10 11:48:11;;;;;;;6.30;5.90;;;9.90;71.60;;;;;;4974645;28;20030;-82
2021/11/10 11:50:38;;;;;;;8.05;6.35;;;9.90;71.40;;;;;;4970225;28;20039;-80
2021/11/10 11:53:04;;;;;;;4.30;4.10;;;10.00;71.30;;;;;;4950177;28;20035;-80
2021/11/10 11:55:45;;;;;;;4.93;4.63;;;10.10;71.20;;;;;;4969278;28;20047;-81
2021/11/10 11:58:38;;;;;;;4.80;4.60;;;10.20;71.80;;;;;;4969270;28;20030;-84
2021/11/10 12:01:12;;;;;;;5.10;4.80;;;10.20;71.10;;;;;;4955070;28;20047;-82
2021/11/10 12:03:41;;;;;;;5.05;4.75;;;10.20;71.10;;;;;;4952863;28;20050;-82
2021/11/10 12:06:07;;;;;;;5.50;5.07;;;10.20;71.10;;;;;;4969778;28;20042;-80
2021/11/10 12:08:50;;;;;;;5.57;5.15;;;10.20;71.20;;;;;;4971104;28;20090;-80
2021/11/10 12:11:19;;;;;;;4.70;4.50;;;10.10;71.30;;;;;;4971265;28;20031;-80
2021/11/10 12:14:15;;;;;;;5.78;5.22;;;10.20;71.40;;;;;;4971394;28;20050;-80
2021/11/10 12:17:01;;;;;;;6.53;5.10;;;10.20;71.30;;;;;;4967123;28;20034;-78
2021/11/10 12:19:34;;;;;;;5.28;4.97;;;10.30;71.20;;;;;;4972355;28;20031;-84
2021/11/10 12:22:00;;;;;;;5.32;5.03;;;10.40;71.20;;;;;;4970617;28;20034;-81
2021/11/10 12:24:27;;;;;;;5.03;4.72;;;10.40;71.10;;;;;;4972982;28;20216;-81
2021/11/10 12:27:04;;;;;;;5.70;5.18;;;10.40;70.90;;;;;;4968105;28;20027;-81
2021/11/10 12:29:59;;;;;;;4.68;4.47;;;10.50;71.00;;;;;;4968590;28;20035;-79
2021/11/10 12:32:47;;;;;;;5.38;5.07;;;10.50;71.00;;;;;;4973394;28;20045;-80
2021/11/10 12:35:40;;;;;;;5.28;4.93;;;10.60;71.00;;;;;;4974804;28;20047;-89
2021/11/10 12:38:23;;;;;;;4.80;4.60;;;10.60;70.90;;;;;;4975090;28;20523;-80
2021/11/10 12:41:08;;;;;;;4.95;4.60;;;10.70;70.90;;;;;;4976351;28;20042;-80
2021/11/10 12:43:41;;;;;;;4.32;4.13;;;10.70;70.80;;;;;;4959356;28;20054;-80
2021/11/10 12:46:21;;;;;;;4.50;4.30;;;10.70;70.70;;;;;;4955490;28;20047;-80
2021/11/10 12:48:48;;;;;;;5.05;4.75;;;10.70;70.70;;;;;;4944438;28;20039;-80
2021/11/10 12:51:29;;;;;;;7.03;6.10;;;10.80;70.70;;;;;;4975837;28;20023;-81
2021/11/10 12:54:06;;;;;;;6.40;5.95;;;10.80;70.60;;;;;;4974675;28;20480;-81
2021/11/10 12:57:01;;;;;;;5.57;5.20;;;10.80;70.60;;;;;;4974545;28;20050;-81
2021/11/10 12:59:33;;;;;;;6.57;5.97;;;10.80;70.60;;;;;;4974357;28;20049;-80
2021/11/10 13:01:59;;;;;;;;;;;10.80;70.50;;;;;;4975187;28;20492;-81
2021/11/10 13:04:26;;;;;;;7.07;6.38;;;10.80;70.40;;;;;;4976459;28;19932;-81
2021/11/10 13:06:58;;;;;;;4.90;4.70;;;10.90;70.40;;;;;;4975273;28;20030;-81